Time;durP1;ratioP1;P1;durP2;ratioP2;P2;SDS_P1;SDS_P2;PMS_P1;PMS_P2;Temp;Humidity;BMP_temperature;BMP_pressure;BME280_temperature;BME280_humidity;BME280_pressure;Samples;Min_cycle;Max_cycle;Signal;HPM_P1;HPM_P2
2023/03/18 05:02:03;;;;;;;3.97;3.57;;;;;;;10.78;56.47;95306.69;6241674;22;20573;-87
2023/03/18 05:14:27;;;;;;;2.73;2.43;;;;;;;10.63;57.37;95314.47;6200053;23;20208;-89
2023/03/18 05:17:14;;;;;;;;;;;;;;;;;;;;;
2023/03/18 05:23:21;;;;;;;4.47;2.83;;;;;;;10.57;57.84;95308.31;6193253;23;20193;-89
2023/03/18 05:32:36;;;;;;;3.87;2.53;;;;;;;10.51;57.94;95319.31;6216102;23;20257;-89
2023/03/18 05:35:33;;;;;;;5.80;2.97;;;;;;;10.50;57.75;95319.50;6215923;23;20680;-88
2023/03/18 05:52:40;;;;;;;7.40;2.60;;;;;;;10.58;68.44;95327.88;6207097;22;20235;-88
2023/03/18 05:55:06;;;;;;;7.90;2.90;;;;;;;11.06;72.13;95330.72;6210543;23;20224;-89
2023/03/18 05:57:33;;;;;;;4.30;2.70;;;;;;;11.50;70.90;95335.63;6209910;23;20882;-87
2023/03/18 06:17:42;;;;;;;33.07;4.80;;;;;;;11.42;59.55;95335.78;6214553;23;20173;-89
2023/03/18 06:20:32;;;;;;;5.90;2.40;;;;;;;11.37;57.14;95328.59;6217994;23;20472;-89
2023/03/18 06:23:21;;;;;;;18.17;3.87;;;;;;;11.38;62.63;95331.97;6217112;23;20173;-85
2023/03/18 06:26:08;;;;;;;9.90;3.30;;;;;;;11.65;66.43;95338.91;6185022;23;20193;-90
2023/03/18 06:28:52;;;;;;;6.80;2.53;;;;;;;11.85;58.53;95333.09;6183900;23;20213;-88
2023/03/18 06:31:21;;;;;;;3.57;2.50;;;;;;;11.80;56.78;95338.03;6185161;23;20676;-86
2023/03/18 06:33:50;;;;;;;4.57;2.57;;;;;;;11.66;57.00;95332.75;6185471;23;20174;-87
2023/03/18 06:36:24;;;;;;;4.37;2.80;;;;;;;11.52;56.52;95332.88;6185355;23;20183;-88
2023/03/18 06:38:53;;;;;;;8.47;2.70;;;;;;;11.47;57.25;95333.44;6185445;23;20201;-87
2023/03/18 06:41:23;;;;;;;5.57;2.77;;;;;;;11.43;57.29;95345.91;6185464;23;20229;-87
2023/03/18 06:43:54;;;;;;;2.70;2.23;;;;;;;11.38;57.15;95345.66;6185841;23;20194;-88
2023/03/18 06:46:25;;;;;;;4.70;2.50;;;;;;;11.37;57.14;95336.31;6183681;23;20158;-89
2023/03/18 06:49:00;;;;;;;3.73;2.60;;;;;;;11.37;56.96;95335.53;6182779;23;20255;-87
2023/03/18 06:51:38;;;;;;;3.40;2.57;;;;;;;11.39;56.77;95341.28;6182447;23;20712;-88
2023/03/18 06:54:15;;;;;;;3.10;2.70;;;;;;;11.42;56.42;95338.34;6182222;23;20201;-88
2023/03/18 06:56:53;;;;;;;3.63;2.67;;;;;;;11.45;56.20;95332.03;6183064;23;20235;-89
2023/03/18 06:59:30;;;;;;;3.40;2.40;;;;;;;11.49;56.06;95346.13;6183597;23;20191;-88
2023/03/18 07:02:00;;;;;;;4.90;2.80;;;;;;;11.55;55.51;95345.38;6182838;23;20233;-88
2023/03/18 07:04:41;;;;;;;5.80;2.50;;;;;;;11.60;55.44;95348.19;6181990;23;20498;-88
2023/03/18 07:07:13;;;;;;;4.57;2.67;;;;;;;11.65;55.70;95346.66;6183492;23;20703;-89
2023/03/18 07:09:54;;;;;;;6.00;2.27;;;;;;;11.73;55.36;95345.72;6183413;23;20174;-89
2023/03/18 07:12:27;;;;;;;3.50;2.50;;;;;;;11.75;55.08;95341.94;6182225;23;20272;-88
2023/03/18 07:14:58;;;;;;;10.97;3.10;;;;;;;11.80;54.64;95343.19;6182892;23;20206;-89
2023/03/18 07:17:29;;;;;;;2.50;1.97;;;;;;;11.86;54.60;95337.28;6181338;23;20502;-88
2023/03/18 07:20:06;;;;;;;2.33;1.90;;;;;;;11.92;53.87;95333.94;6182030;23;20198;-89
2023/03/18 07:22:33;;;;;;;5.63;2.43;;;;;;;12.01;54.04;95337.94;6178664;23;20696;-89
2023/03/18 07:25:15;;;;;;;5.23;2.50;;;;;;;12.06;53.61;95346.72;6178769;23;20214;-88
2023/03/18 07:31:00;;;;;;;3.90;2.60;;;;;;;12.25;53.21;95344.41;6179585;23;20325;-88
2023/03/18 07:33:49;;;;;;;4.27;2.33;;;;;;;12.33;53.17;95349.38;6181969;23;20237;-88
2023/03/18 07:36:35;;;;;;;4.13;2.37;;;;;;;12.42;52.88;95353.41;6182292;23;20512;-87
2023/03/18 07:39:48;;;;;;;5.77;2.20;;;;;;;12.47;52.47;95353.63;6183325;23;20296;-88
2023/03/18 07:57:41;;;;;;;3.33;2.30;;;;;;;12.78;52.21;95355.69;6063118;23;20184;-89
2023/03/18 08:00:56;;;;;;;;;;;;;;;;;;;;;
2023/03/18 08:04:02;;;;;;;3.50;2.40;;;;;;;13.05;51.79;95369.47;6112279;23;20213;-88
2023/03/18 08:06:56;;;;;;;4.43;2.60;;;;;;;13.12;51.91;95365.09;6179661;23;20256;-89
2023/03/18 08:10:00;;;;;;;5.53;2.50;;;;;;;13.16;50.66;95368.91;6185371;23;20201;-89
2023/03/18 08:13:03;;;;;;;3.73;2.30;;;;;;;13.28;50.57;95367.31;6182991;23;20185;-90
2023/03/18 08:28:40;;;;;;;5.07;2.47;;;;;;;13.87;49.10;95360.50;6131044;23;20204;-89
2023/03/18 08:31:25;;;;;;;3.40;2.23;;;;;;;14.02;49.35;95361.91;6140847;23;20201;-88
2023/03/18 08:41:22;;;;;;;3.10;2.00;;;;;;;14.43;47.60;95366.00;6107767;23;20198;-89
2023/03/18 08:44:10;;;;;;;2.97;2.30;;;;;;;14.51;46.63;95355.38;6173432;23;20560;-88
2023/03/18 08:47:37;;;;;;;2.45;2.17;;;;;;;14.57;45.94;95362.34;6179130;23;20186;-88
2023/03/18 08:50:04;;;;;;;3.13;2.05;;;;;;;14.67;46.38;95360.06;6030500;23;20205;-89
2023/03/18 08:59:31;;;;;;;3.55;2.28;;;;;;;15.12;45.91;95360.03;6148635;23;20205;-89
2023/03/18 09:02:35;;;;;;;3.38;1.92;;;;;;;15.26;45.77;95358.13;6177752;23;20193;-87
2023/03/18 09:11:35;;;;;;;12.63;3.72;;;;;;;15.68;44.85;95359.22;6025408;23;20256;-90
2023/03/18 09:14:39;;;;;;;;;;;;;;;;;;;;;
2023/03/18 09:20:45;;;;;;;3.17;2.00;;;;;;;16.14;42.51;95345.78;5971380;23;20226;-91
2023/03/18 09:50:25;;;;;;;;;;;;;;;;;;;;;
2023/03/18 10:12:04;;;;;;;4.18;2.38;;;;;;;18.35;36.11;95353.28;6211330;23;20172;-88
2023/03/18 10:15:05;;;;;;;24.95;17.70;;;;;;;18.56;36.20;95357.09;6199349;23;20193;-88
2023/03/18 10:25:45;;;;;;;2.20;1.50;;;;;;;18.89;34.47;95338.94;5968781;23;20228;-88
2023/03/18 10:32:17;;;;;;;1.83;1.50;;;;;;;19.07;34.53;95339.78;6032650;23;20253;-87
2023/03/18 10:54:55;;;;;;;5.75;2.10;;;;;;;19.20;32.78;95322.00;6141839;23;20280;-90
2023/03/18 11:13:21;;;;;;;2.42;1.85;;;;;;;19.63;32.34;95310.94;6101770;23;20260;-89
2023/03/18 11:16:37;;;;;;;2.28;1.88;;;;;;;19.81;33.10;95296.06;6214259;23;20232;-88
2023/03/18 11:32:57;;;;;;;3.10;2.25;;;;;;;20.20;31.53;95278.50;6212425;23;20178;-88
2023/03/18 11:35:45;;;;;;;2.55;2.28;;;;;;;20.21;32.35;95274.84;6214591;23;20886;-88
2023/03/18 11:44:54;;;;;;;4.30;2.30;;;;;;;20.34;31.40;95254.34;6207551;23;20602;-88
2023/03/18 11:47:44;;;;;;;2.97;2.28;;;;;;;20.37;31.74;95254.94;6213779;23;20169;-87
2023/03/18 11:50:44;;;;;;;4.55;2.40;;;;;;;20.12;30.36;95243.13;6214191;23;20181;-86
2023/03/18 12:00:10;;;;;;;2.53;2.30;;;;;;;20.23;31.58;95236.16;6214332;23;20173;-88
2023/03/18 12:03:31;;;;;;;4.45;2.45;;;;;;;20.23;31.16;95233.56;6214589;23;20636;-90
2023/03/18 12:06:19;;;;;;;2.50;2.30;;;;;;;20.47;31.34;95228.88;6213223;23;20582;-88
2023/03/18 12:08:57;;;;;;;3.90;2.72;;;;;;;20.45;31.23;95217.84;6214016;23;20176;-89
2023/03/18 12:11:47;;;;;;;2.88;2.42;;;;;;;20.63;32.00;95220.13;6212373;23;20207;-87
2023/03/18 12:14:45;;;;;;;3.58;2.55;;;;;;;20.90;32.33;95220.88;6212840;23;20193;-89
2023/03/18 12:17:38;;;;;;;4.63;2.65;;;;;;;21.15;31.40;95230.00;6214895;23;20172;-88
2023/03/18 12:20:51;;;;;;;4.50;2.65;;;;;;;21.12;31.16;95225.25;6222069;23;20180;-88
2023/03/18 12:24:11;;;;;;;3.40;2.40;;;;;;;21.02;30.60;95231.19;6210318;23;20174;-88
2023/03/18 12:27:13;;;;;;;3.47;2.22;;;;;;;20.94;30.42;95227.22;6002819;23;20216;-88
2023/03/18 12:37:02;;;;;;;4.53;2.65;;;;;;;20.84;30.03;95232.34;6195370;23;20174;-90
2023/03/18 12:39:52;;;;;;;3.05;2.40;;;;;;;20.89;30.71;95226.38;6212484;23;20192;-89
2023/03/18 12:42:30;;;;;;;3.00;2.63;;;;;;;20.85;30.84;95220.84;6211305;23;20239;-89
2023/03/18 12:45:00;;;;;;;3.50;2.40;;;;;;;20.81;31.02;95217.13;6216930;23;20193;-89
2023/03/18 12:47:35;;;;;;;4.47;2.30;;;;;;;20.56;30.20;95220.34;6214097;23;20185;-87
2023/03/18 12:50:18;;;;;;;4.28;2.75;;;;;;;20.68;30.38;95214.94;6216111;23;20169;-90
2023/03/18 12:53:01;;;;;;;4.57;2.63;;;;;;;20.90;31.22;95214.88;6211521;23;20187;-89
2023/03/18 12:55:53;;;;;;;3.40;2.47;;;;;;;21.10;30.69;95220.25;6214033;23;20197;-89
2023/03/18 12:58:33;;;;;;;2.85;2.50;;;;;;;20.84;30.36;95214.03;6214153;23;20644;-89
2023/03/18 13:01:05;;;;;;;5.65;2.63;;;;;;;20.64;30.05;95209.41;6214584;23;20189;-88
2023/03/18 13:03:46;;;;;;;3.28;2.50;;;;;;;20.72;30.61;95213.41;6213846;23;20229;-90
2023/03/18 13:06:40;;;;;;;6.28;2.58;;;;;;;20.76;30.01;95214.50;6211074;23;20161;-89
2023/03/18 13:09:27;;;;;;;3.20;2.30;;;;;;;20.79;30.55;95221.03;6211146;23;20201;-91
2023/03/18 13:12:12;;;;;;;3.58;2.15;;;;;;;20.85;30.29;95222.66;6209152;23;20208;-89
2023/03/18 13:15:08;;;;;;;4.03;2.80;;;;;;;21.16;30.61;95223.72;6207743;23;20652;-88
2023/03/18 13:17:44;;;;;;;4.75;2.97;;;;;;;21.20;30.47;95216.94;6210909;23;20179;-88
2023/03/18 13:20:15;;;;;;;4.57;2.53;;;;;;;21.20;30.46;95206.47;6210149;23;20839;-88
2023/03/18 13:23:01;;;;;;;3.22;2.50;;;;;;;21.05;30.37;95209.75;6209890;23;20177;-88
2023/03/18 13:25:40;;;;;;;4.40;2.85;;;;;;;21.08;30.20;95211.88;6211413;23;20276;-88
2023/03/18 13:28:44;;;;;;;2.78;2.40;;;;;;;21.23;30.35;95205.97;6211639;23;20175;-91
2023/03/18 13:31:36;;;;;;;3.03;2.17;;;;;;;21.31;30.38;95198.44;6146201;23;20169;-89
2023/03/18 13:34:52;;;;;;;3.75;2.60;;;;;;;21.33;30.38;95185.88;6209965;23;20184;-88
2023/03/18 13:38:02;;;;;;;3.88;2.42;;;;;;;21.24;29.95;95187.38;6209266;23;20220;-88
2023/03/18 13:40:52;;;;;;;4.95;2.70;;;;;;;21.16;30.44;95185.22;6206799;23;20176;-89
2023/03/18 13:43:26;;;;;;;2.30;2.10;;;;;;;21.34;30.40;95190.09;6205769;23;20177;-88
2023/03/18 13:45:53;;;;;;;3.55;2.22;;;;;;;21.57;29.87;95183.63;6208484;23;20204;-88
2023/03/18 13:48:46;;;;;;;2.20;1.73;;;;;;;21.48;28.99;95185.16;6208914;23;20174;-89
2023/03/18 13:51:50;;;;;;;3.13;1.85;;;;;;;21.76;29.63;95185.81;6206793;23;20817;-88
2023/03/18 13:54:35;;;;;;;3.72;2.08;;;;;;;21.95;29.65;95176.44;6149106;23;20279;-89
2023/03/18 13:57:51;;;;;;;2.88;2.00;;;;;;;21.84;29.12;95169.59;6210969;23;20173;-90
2023/03/18 14:00:37;;;;;;;3.22;2.30;;;;;;;21.92;29.36;95162.03;6208936;23;20174;-89
2023/03/18 14:03:28;;;;;;;3.55;2.50;;;;;;;21.93;29.62;95163.63;6209822;23;20212;-89
2023/03/18 14:09:24;;;;;;;3.30;2.05;;;;;;;22.03;29.24;95157.63;6202962;23;20747;-90
2023/03/18 14:12:04;;;;;;;4.47;2.38;;;;;;;21.68;29.48;95156.44;6209775;23;20181;-90
2023/03/18 14:14:55;;;;;;;3.92;2.28;;;;;;;21.48;29.96;95148.50;6208599;23;20274;-88
2023/03/18 14:17:33;;;;;;;3.63;2.40;;;;;;;21.42;29.95;95152.13;6209345;23;20660;-89
2023/03/18 14:20:35;;;;;;;3.97;2.28;;;;;;;21.10;30.07;95151.41;6210675;23;20162;-89
2023/03/18 14:23:35;;;;;;;3.88;2.65;;;;;;;20.86;30.74;95145.75;6209355;23;20506;-90
2023/03/18 14:26:26;;;;;;;5.07;2.30;;;;;;;20.84;31.03;95148.59;6209247;23;20193;-89
2023/03/18 14:29:09;;;;;;;2.72;2.08;;;;;;;20.99;31.40;95146.09;6209581;23;20154;-89
2023/03/18 14:32:00;;;;;;;2.50;1.90;;;;;;;21.31;30.90;95142.66;6209049;23;20594;-89
2023/03/18 14:37:33;;;;;;;5.80;2.58;;;;;;;20.84;31.21;95153.06;6212074;23;20174;-91
2023/03/18 14:40:14;;;;;;;3.63;2.40;;;;;;;20.85;31.49;95155.41;6210300;23;20687;-90
2023/03/18 14:42:51;;;;;;;3.05;2.20;;;;;;;20.98;31.05;95138.47;6210043;23;20182;-89
2023/03/18 14:45:31;;;;;;;2.92;2.05;;;;;;;20.90;31.22;95142.38;6210474;23;20193;-90
2023/03/18 14:48:01;;;;;;;3.55;1.98;;;;;;;20.71;31.36;95135.97;6210692;23;20216;-89
2023/03/18 14:50:40;;;;;;;2.65;2.05;;;;;;;20.51;31.87;95131.34;6211362;23;20692;-91
2023/03/18 14:53:14;;;;;;;2.88;2.30;;;;;;;20.21;32.34;95124.00;6209220;23;20486;-90
2023/03/18 14:55:41;;;;;;;3.17;2.28;;;;;;;20.00;32.80;95132.69;6210224;23;20193;-90
2023/03/18 14:58:14;;;;;;;3.63;2.30;;;;;;;19.65;33.15;95120.03;6209951;23;20551;-90
2023/03/18 15:00:42;;;;;;;4.53;2.30;;;;;;;19.61;33.07;95121.56;6209009;23;20166;-90
2023/03/18 15:03:17;;;;;;;2.78;2.42;;;;;;;19.73;33.20;95126.66;6209656;23;20595;-90
2023/03/18 15:05:53;;;;;;;3.75;2.40;;;;;;;19.80;33.24;95122.03;6209120;23;20190;-90
2023/03/18 15:08:23;;;;;;;2.75;2.30;;;;;;;19.80;33.24;95124.66;6209951;23;20552;-90
2023/03/18 15:10:51;;;;;;;2.97;2.10;;;;;;;19.84;33.33;95123.09;6209042;23;20695;-90
2023/03/18 15:13:19;;;;;;;3.53;2.08;;;;;;;19.67;33.21;95126.59;6208351;23;20675;-90
2023/03/18 15:15:54;;;;;;;4.05;2.00;;;;;;;19.56;33.70;95126.72;6208966;23;20279;-90
2023/03/18 15:19:07;;;;;;;3.75;2.38;;;;;;;19.43;33.68;95117.41;6209347;23;20223;-91
2023/03/18 15:21:36;;;;;;;4.90;2.63;;;;;;;19.28;33.99;95117.19;6208767;23;20261;-90
2023/03/18 15:24:06;;;;;;;4.03;2.65;;;;;;;19.22;34.17;95121.59;6209465;23;20170;-91
2023/03/18 15:26:36;;;;;;;5.13;2.50;;;;;;;19.19;34.45;95121.28;6211385;23;20165;-88
2023/03/18 15:29:24;;;;;;;3.65;2.08;;;;;;;19.26;34.60;95114.81;6212554;23;20177;-89
2023/03/18 15:31:51;;;;;;;4.53;2.75;;;;;;;19.30;34.77;95110.72;6209639;23;20165;-90
2023/03/18 15:34:20;;;;;;;3.72;2.80;;;;;;;19.28;34.74;95119.81;6211266;23;20194;-90
2023/03/18 15:36:52;;;;;;;2.75;2.35;;;;;;;19.20;34.83;95113.19;6211313;23;20192;-90
2023/03/18 15:39:21;;;;;;;2.50;2.30;;;;;;;19.17;34.54;95120.72;6211777;23;20158;-89
2023/03/18 15:41:52;;;;;;;6.80;2.78;;;;;;;19.16;34.77;95121.75;6210999;23;20193;-89
2023/03/18 15:44:25;;;;;;;3.85;2.40;;;;;;;19.08;34.84;95122.94;6210496;23;20205;-89
2023/03/18 15:46:53;;;;;;;5.60;2.72;;;;;;;19.07;34.77;95129.19;6210209;23;20161;-90
2023/03/18 15:49:26;;;;;;;6.00;2.67;;;;;;;18.97;35.03;95122.03;6210492;23;20236;-90
2023/03/18 15:52:00;;;;;;;4.53;2.78;;;;;;;18.89;35.29;95127.63;6211354;23;20158;-90
2023/03/18 15:54:29;;;;;;;4.25;2.97;;;;;;;18.67;35.56;95118.97;6211718;23;20196;-90
2023/03/18 15:56:58;;;;;;;5.45;3.03;;;;;;;18.51;35.98;95123.13;6211725;23;20174;-90
2023/03/18 15:59:26;;;;;;;4.40;2.90;;;;;;;18.51;35.89;95120.50;6211197;23;20173;-89
2023/03/18 16:01:55;;;;;;;4.38;2.78;;;;;;;18.50;35.81;95123.34;6210768;23;20197;-89
2023/03/18 16:04:23;;;;;;;3.35;2.45;;;;;;;18.52;36.17;95121.31;6211887;23;20194;-90
2023/03/18 16:06:51;;;;;;;3.30;2.60;;;;;;;18.53;36.40;95128.09;6211558;23;20688;-89
2023/03/18 16:09:20;;;;;;;4.20;2.83;;;;;;;18.50;36.24;95121.53;6210814;23;20209;-90
2023/03/18 16:11:50;;;;;;;3.20;2.90;;;;;;;18.28;36.24;95131.06;6210595;23;20208;-89
2023/03/18 16:14:25;;;;;;;4.53;2.90;;;;;;;18.16;36.55;95123.34;6209748;23;20713;-90
2023/03/18 16:16:51;;;;;;;3.88;2.80;;;;;;;18.17;36.77;95121.53;6210875;23;20778;-89
2023/03/18 16:19:23;;;;;;;3.17;2.78;;;;;;;18.20;37.06;95121.84;6210866;23;20173;-89
2023/03/18 16:21:50;;;;;;;3.00;2.40;;;;;;;18.20;37.12;95132.28;6210225;23;20193;-89
2023/03/18 16:24:17;;;;;;;17.63;15.75;;;;;;;18.17;36.92;95137.94;6210247;23;20197;-89
2023/03/18 16:26:45;;;;;;;16.27;11.60;;;;;;;18.12;36.58;95144.88;6210788;23;20169;-90
2023/03/18 16:29:16;;;;;;;7.78;5.35;;;;;;;18.09;36.89;95137.56;6210625;23;20177;-89
2023/03/18 16:31:43;;;;;;;3.67;2.85;;;;;;;18.06;37.17;95133.59;6210458;23;20170;-89
2023/03/18 16:34:17;;;;;;;4.82;3.15;;;;;;;18.04;37.13;95133.03;6210853;23;20192;-89
2023/03/18 16:36:44;;;;;;;5.22;3.22;;;;;;;17.97;37.24;95136.78;6210592;23;20249;-89
2023/03/18 16:39:18;;;;;;;5.20;3.03;;;;;;;17.95;37.24;95137.81;6210255;23;20827;-88
2023/03/18 16:41:46;;;;;;;4.80;2.92;;;;;;;17.95;36.91;95150.84;6210429;23;20181;-89
2023/03/18 16:44:14;;;;;;;3.22;2.70;;;;;;;17.93;37.46;95147.66;6209245;23;20216;-89
2023/03/18 16:46:43;;;;;;;3.85;3.05;;;;;;;17.96;37.36;95154.25;6209255;23;20184;-89
2023/03/18 16:49:15;;;;;;;3.95;3.03;;;;;;;17.89;37.27;95156.22;6209185;23;20178;-89
2023/03/18 16:51:41;;;;;;;7.75;3.17;;;;;;;17.88;37.27;95154.63;6209300;23;20539;-89
2023/03/18 16:54:18;;;;;;;4.35;2.97;;;;;;;17.89;37.33;95161.41;6208647;23;20181;-89
2023/03/18 16:56:48;;;;;;;3.53;3.10;;;;;;;17.73;37.46;95162.91;6208980;23;20494;-89
2023/03/18 16:59:16;;;;;;;4.13;3.35;;;;;;;17.69;37.66;95166.22;6209491;23;20185;-89
2023/03/18 17:01:45;;;;;;;5.32;3.58;;;;;;;17.70;37.73;95168.59;6209190;23;20184;-89
2023/03/18 17:04:20;;;;;;;4.82;3.72;;;;;;;17.60;38.29;95173.56;6208953;23;20256;-89
2023/03/18 17:06:46;;;;;;;4.50;3.35;;;;;;;17.59;38.04;95172.78;6209214;23;20650;-89
2023/03/18 17:09:13;;;;;;;6.15;3.40;;;;;;;17.59;38.21;95174.59;6208989;23;20187;-88
2023/03/18 17:11:40;;;;;;;4.30;3.30;;;;;;;17.60;38.17;95176.97;6208573;23;20193;-89
2023/03/18 17:14:24;;;;;;;4.80;3.60;;;;;;;17.57;38.56;95179.22;6179217;23;20155;-89
2023/03/18 17:16:50;;;;;;;3.92;3.00;;;;;;;17.57;38.53;95187.03;6179712;23;20201;-89
2023/03/18 17:19:17;;;;;;;4.13;3.30;;;;;;;17.50;38.79;95179.38;6179076;23;20179;-89
2023/03/18 17:21:44;;;;;;;3.92;3.25;;;;;;;17.45;38.79;95194.09;6179228;23;20174;-89
2023/03/18 17:24:10;;;;;;;4.85;3.20;;;;;;;17.42;39.06;95189.34;6180426;23;20182;-88
2023/03/18 17:26:37;;;;;;;5.53;3.90;;;;;;;17.28;39.53;95186.19;6180012;23;20178;-87
2023/03/18 17:29:03;;;;;;;5.50;3.50;;;;;;;17.26;39.58;95185.63;6181797;23;20178;-89
2023/03/18 17:31:32;;;;;;;8.90;6.75;;;;;;;17.11;39.98;95199.09;6183266;23;20190;-88
2023/03/18 17:33:59;;;;;;;13.48;9.60;;;;;;;17.00;40.60;95202.47;6179866;23;20193;-89
2023/03/18 17:36:26;;;;;;;11.65;8.77;;;;;;;16.96;40.74;95195.34;6179446;23;20680;-88
2023/03/18 17:38:57;;;;;;;9.30;7.35;;;;;;;16.97;40.54;95202.91;6178794;23;20261;-88
2023/03/18 17:41:23;;;;;;;6.03;4.75;;;;;;;17.00;40.71;95207.66;6177121;23;20503;-88
2023/03/18 17:43:50;;;;;;;4.63;3.75;;;;;;;16.90;41.55;95194.44;6178085;23;20198;-88
2023/03/18 17:46:17;;;;;;;4.50;3.85;;;;;;;16.87;41.50;95185.28;6177896;23;20198;-88
2023/03/18 17:48:45;;;;;;;7.28;3.72;;;;;;;16.80;41.61;95194.19;6178386;23;20185;-88
2023/03/18 17:51:16;;;;;;;4.75;3.63;;;;;;;16.80;41.93;95189.00;6177258;23;20177;-87
2023/03/18 17:53:46;;;;;;;4.72;3.63;;;;;;;16.77;41.99;95192.81;6178728;23;20159;-88
2023/03/18 17:56:15;;;;;;;6.60;4.22;;;;;;;16.75;42.26;95189.66;6178200;23;20225;-88
2023/03/18 17:58:50;;;;;;;6.80;4.60;;;;;;;16.53;42.37;95186.78;6178269;23;20175;-88
2023/03/18 18:01:19;;;;;;;6.70;3.97;;;;;;;16.51;42.47;95190.63;6178096;23;20618;-87
2023/03/18 18:03:47;;;;;;;9.73;4.93;;;;;;;16.52;42.57;95192.22;6179909;23;20621;-89
2023/03/18 18:06:32;;;;;;;6.82;5.07;;;;;;;16.53;42.87;95193.78;6179742;23;20204;-89
2023/03/18 18:09:04;;;;;;;7.25;4.53;;;;;;;16.52;42.45;95192.22;6179901;23;20573;-89
2023/03/18 18:11:37;;;;;;;6.30;4.55;;;;;;;16.51;43.10;95191.41;6179331;23;20186;-89
2023/03/18 18:14:23;;;;;;;8.25;5.00;;;;;;;16.53;42.76;95193.78;6177679;23;20167;-89
2023/03/18 18:16:50;;;;;;;19.30;17.20;;;;;;;16.50;42.95;95196.84;6179934;23;20166;-89
2023/03/18 18:19:21;;;;;;;46.80;38.05;;;;;;;16.44;43.12;95197.72;6179769;23;20224;-88
2023/03/18 18:21:49;;;;;;;31.58;26.05;;;;;;;16.42;43.07;95190.13;6179301;23;20158;-89
2023/03/18 18:24:23;;;;;;;15.02;11.98;;;;;;;16.44;43.28;95197.72;6179239;23;20212;-89
2023/03/18 18:26:51;;;;;;;8.43;5.15;;;;;;;16.40;43.22;95197.34;6180245;23;20206;-88
2023/03/18 18:29:21;;;;;;;6.85;5.28;;;;;;;16.39;42.82;95190.56;6180698;23;20174;-89
2023/03/18 18:31:48;;;;;;;8.27;4.78;;;;;;;16.30;43.37;95194.50;6179787;23;20246;-88
2023/03/18 18:34:24;;;;;;;5.75;4.60;;;;;;;16.26;43.04;95195.16;6179956;23;20174;-88
2023/03/18 18:36:53;;;;;;;6.70;5.10;;;;;;;16.21;43.23;95195.81;6178763;23;20185;-89
2023/03/18 18:39:22;;;;;;;7.50;5.07;;;;;;;16.21;43.29;95201.03;6176878;23;20182;-89
2023/03/18 18:42:03;;;;;;;10.07;5.50;;;;;;;16.20;43.99;95199.44;6179811;23;20228;-88
2023/03/18 18:44:32;;;;;;;9.88;5.88;;;;;;;16.16;43.67;95183.50;6179774;23;20709;-88
2023/03/18 18:47:08;;;;;;;9.88;5.47;;;;;;;16.14;43.66;95195.13;6180573;23;20236;-88
2023/03/18 18:50:16;;;;;;;9.45;5.53;;;;;;;16.10;44.59;95192.19;6179249;23;20657;-89
2023/03/18 18:53:02;;;;;;;8.00;5.25;;;;;;;16.10;44.41;95184.41;6180002;23;20158;-88
2023/03/18 18:55:37;;;;;;;36.50;29.27;;;;;;;16.09;44.20;95188.00;6179549;23;20237;-88
2023/03/18 18:58:03;;;;;;;26.13;22.55;;;;;;;16.08;44.54;95194.22;6179433;23;20174;-89
2023/03/18 19:00:33;;;;;;;9.35;6.93;;;;;;;16.02;44.37;95184.69;6180070;23;20178;-88
2023/03/18 19:03:00;;;;;;;10.00;5.65;;;;;;;15.99;43.97;95182.53;6179865;23;20198;-88
2023/03/18 19:05:30;;;;;;;5.93;5.30;;;;;;;15.98;43.96;95188.72;6179747;23;20202;-88
2023/03/18 19:08:08;;;;;;;;;;;;;;;;;;;;;
2023/03/18 19:10:40;;;;;;;9.02;6.20;;;;;;;15.87;44.19;95198.06;6179177;23;20265;-90
2023/03/18 19:13:16;;;;;;;8.60;6.18;;;;;;;15.81;44.39;95193.72;6179921;23;20510;-90
2023/03/18 19:15:53;;;;;;;9.07;6.50;;;;;;;15.80;44.59;95196.56;6180535;23;20740;-90
2023/03/18 19:18:27;;;;;;;8.68;6.38;;;;;;;15.79;45.00;95197.56;6181633;23;20178;-89
2023/03/18 19:20:55;;;;;;;13.85;8.73;;;;;;;15.71;45.29;95192.69;6180311;23;20189;-88
2023/03/18 19:23:28;;;;;;;12.68;6.88;;;;;;;15.72;45.53;95199.47;6181659;23;20189;-88
2023/03/18 19:25:59;;;;;;;11.10;7.10;;;;;;;15.71;45.73;95193.47;6133511;23;20219;-90
2023/03/18 19:28:51;;;;;;;9.95;7.38;;;;;;;15.63;46.68;95193.75;6124912;23;20164;-88
2023/03/18 19:34:11;;;;;;;10.48;7.05;;;;;;;15.57;45.46;95204.22;6120081;23;20238;-89
2023/03/18 19:36:45;;;;;;;8.75;7.05;;;;;;;15.53;45.68;95201.22;6125173;23;20246;-89
2023/03/18 19:39:14;;;;;;;9.68;7.90;;;;;;;15.51;45.34;95213.63;6124978;23;20162;-88
2023/03/18 19:41:45;;;;;;;17.13;12.07;;;;;;;15.50;45.65;95217.22;6124049;23;20211;-88
2023/03/18 19:44:23;;;;;;;13.15;10.20;;;;;;;15.47;45.48;95217.66;6122999;23;20191;-91
2023/03/18 19:46:59;;;;;;;11.40;8.50;;;;;;;15.41;45.62;95221.09;6123695;23;20255;-89
2023/03/18 19:49:30;;;;;;;11.82;8.23;;;;;;;15.39;45.89;95215.38;6125018;23;20184;-89
2023/03/18 19:52:02;;;;;;;9.80;6.72;;;;;;;15.28;46.09;95216.06;6124589;23;20164;-89
2023/03/18 19:54:31;;;;;;;8.43;6.47;;;;;;;15.13;46.84;95209.41;6125662;23;20671;-89
2023/03/18 19:57:05;;;;;;;8.02;5.88;;;;;;;15.06;46.62;95211.25;6122713;23;20182;-89
2023/03/18 19:59:38;;;;;;;10.73;8.43;;;;;;;15.02;46.37;95209.31;6124253;23;20230;-88
2023/03/18 20:02:20;;;;;;;10.82;7.82;;;;;;;14.95;46.61;95214.56;6125022;23;20183;-88
2023/03/18 20:05:11;;;;;;;7.13;6.07;;;;;;;15.00;46.44;95208.75;6122542;23;20258;-87
2023/03/18 20:07:39;;;;;;;7.97;6.30;;;;;;;15.02;46.40;95217.06;6118877;23;20611;-89
2023/03/18 20:10:09;;;;;;;8.40;6.43;;;;;;;15.02;46.53;95219.66;6128528;23;20232;-88
2023/03/18 20:12:47;;;;;;;11.70;5.90;;;;;;;15.02;46.72;95217.88;6124634;23;20230;-89
2023/03/18 20:18:40;;;;;;;8.15;5.82;;;;;;;14.95;47.22;95227.53;6106916;23;20202;-90
2023/03/18 20:21:14;;;;;;;10.02;7.70;;;;;;;15.01;47.48;95210.34;6124476;23;20217;-89
2023/03/18 20:23:55;;;;;;;12.30;6.60;;;;;;;15.00;47.36;95216.53;6123097;23;20186;-89
2023/03/18 20:26:35;;;;;;;10.93;6.65;;;;;;;14.97;46.99;95209.16;6124003;23;20250;-88
2023/03/18 20:29:45;;;;;;;;;;;;;;;;;;;;;
2023/03/18 20:38:05;;;;;;;9.73;6.30;;;;;;;14.97;47.21;95219.53;6119177;23;20416;-88
2023/03/18 20:40:33;;;;;;;10.57;6.15;;;;;;;15.00;47.03;95221.72;6125515;23;20182;-88
2023/03/18 20:43:01;;;;;;;10.07;7.63;;;;;;;15.03;47.72;95232.41;6122832;23;20274;-88
2023/03/18 20:45:28;;;;;;;10.60;6.78;;;;;;;15.05;47.59;95227.81;6124849;23;20274;-88
2023/03/18 20:48:00;;;;;;;9.30;6.53;;;;;;;15.06;48.07;95233.81;6126032;23;20643;-89
2023/03/18 20:50:36;;;;;;;9.10;5.97;;;;;;;15.02;48.41;95233.44;6121380;23;20531;-88
2023/03/18 20:53:04;;;;;;;9.85;6.13;;;;;;;15.02;48.16;95230.84;6120370;23;20164;-89
2023/03/18 20:55:40;;;;;;;11.40;6.40;;;;;;;14.95;48.16;95221.53;6120823;23;20203;-89
2023/03/18 20:58:12;;;;;;;8.60;6.93;;;;;;;14.88;48.74;95223.38;6120625;23;20167;-90
2023/03/18 21:00:39;;;;;;;8.57;6.38;;;;;;;14.79;48.64;95221.06;6120440;23;20167;-88
2023/03/18 21:03:25;;;;;;;10.55;6.72;;;;;;;14.71;49.07;95217.94;6120114;23;20231;-89
2023/03/18 21:05:55;;;;;;;7.38;6.15;;;;;;;14.71;49.00;95216.13;6120560;23;20279;-90
2023/03/18 21:08:21;;;;;;;8.35;6.68;;;;;;;14.72;49.32;95220.31;6120513;23;20175;-89
2023/03/18 21:10:50;;;;;;;9.98;6.72;;;;;;;14.69;49.58;95223.31;6120623;23;20188;-89
2023/03/18 21:13:31;;;;;;;10.07;7.00;;;;;;;14.64;49.90;95217.97;6120524;23;20246;-90
2023/03/18 21:16:00;;;;;;;9.52;7.18;;;;;;;14.62;49.08;95221.81;6120235;23;20195;-89
2023/03/18 21:18:27;;;;;;;8.93;7.57;;;;;;;14.60;49.45;95222.00;6120126;23;20182;-89
2023/03/18 21:20:54;;;;;;;10.35;7.70;;;;;;;14.59;49.26;95225.59;6120719;23;20183;-88
2023/03/18 21:23:30;;;;;;;8.30;7.05;;;;;;;14.52;49.59;95222.25;6120054;23;20222;-88
2023/03/18 21:26:04;;;;;;;10.15;7.13;;;;;;;14.51;49.70;95225.84;6120282;23;20289;-88
2023/03/18 21:28:30;;;;;;;10.07;6.45;;;;;;;14.49;49.53;95227.84;6119962;23;20193;-88
2023/03/18 21:30:57;;;;;;;10.10;7.32;;;;;;;14.47;49.93;95225.47;6120283;23;20187;-88
2023/03/18 21:33:26;;;;;;;9.77;6.68;;;;;;;14.48;49.78;95224.47;6120406;23;20511;-89
2023/03/18 21:35:55;;;;;;;10.23;7.53;;;;;;;14.51;49.30;95234.41;6121126;23;20254;-89
2023/03/18 21:38:22;;;;;;;9.38;7.05;;;;;;;14.51;49.89;95231.03;6121330;23;20224;-88
2023/03/18 21:40:48;;;;;;;11.20;7.40;;;;;;;14.47;50.18;95233.25;6122293;23;20650;-89
2023/03/18 21:43:26;;;;;;;10.10;7.72;;;;;;;14.36;51.03;95231.28;6122216;23;20199;-88